Rize — 9HA2781 — position and weather

sailwx.info

Track history (hours):
 
Tides and Currents Weather Stations Pressure Air Temp Water Temp Dewpoint Dewpoint Depression Visibility Wind Speed Wind Dir Waves Ship Positions

Rize

Last reported at 2016-Jul-25 01:33 UTC. Time now 2016-Jul-25 02:21 UTC.
Position N 53°54' E 004°51'.

Length 229 m; draft 14 m.

Type: Cargo ship. MMSI: 215677000.

Date/timePositionNaut miles runAvg speedWind from/ knotsBaromVisibWave heightAir tempDewpointWater temp
2016-Jul-25 01:33N 53°54' E 004°51'1111.1
2016-Jul-25 00:33N 54°04' E 004°58'1111.0
2016-Jul-24 23:33N 54°15' E 005°04'16511.5
2016-Jul-24 09:18N 56°39' E 007°24'2211.7
2016-Jul-24 07:24N 56°58' E 007°45'1111.8
2016-Jul-24 06:30N 57°07' E 007°55'3511.4
2016-Jul-24 03:26N 57°29' E 008°45'2311.0
2016-Jul-24 01:20N 57°43' E 009°20'3311.3
2016-Jul-23 22:25N 57°52' E 010°19'1012.0
2016-Jul-23 21:33N 57°52' E 010°38'1010.3
2016-Jul-23 20:33N 57°44' E 010°52'6 2.3
2016-Jul-23 18:07N 57°41' E 010°43'0 0.0
2016-Jul-23 17:28N 57°41' E 010°43'0 0.0
2016-Jul-23 16:31N 57°41' E 010°43'6 5.9
2016-Jul-23 15:33N 57°38' E 010°51'1211.7
2016-Jul-23 14:33N 57°33' E 011°11'1111.0
2016-Jul-23 13:33N 57°26' E 011°27'1111.6
2016-Jul-23 12:34N 57°15' E 011°35'1211.5
2016-Jul-23 11:33N 57°04' E 011°42'1111.2
2016-Jul-23 10:34N 56°54' E 011°48'1010.4
2016-Jul-23 09:33N 56°44' E 011°52'1111.4
2016-Jul-23 08:34N 56°35' E 011°40'1211.5
2016-Jul-23 07:33N 56°26' E 011°25'1110.6
2016-Jul-23 06:31N 56°22' E 011°07'2211.1
2016-Jul-23 04:33N 56°00' E 011°04'1211.7
2016-Jul-23 03:33N 55°52' E 010°49'1211.9
2016-Jul-23 02:33N 55°40' E 010°47'1711.4
2016-Jul-23 01:05N 55°25' E 010°59'711.4
2016-Jul-23 00:30N 55°19' E 011°03'9 9.3
2016-Jul-22 23:33N 55°10' E 011°01'1111.5
2016-Jul-22 22:34N 54°59' E 010°58'1211.9
2016-Jul-22 21:34N 54°48' E 010°50'9 8.5
2016-Jul-22 20:34N 54°39' E 010°51'1111.4
2016-Jul-22 19:33N 54°36' E 011°10'1212.1
2016-Jul-22 18:34N 54°31' E 011°29'1211.8
2016-Jul-22 17:33N 54°26' E 011°47'1111.3
2016-Jul-22 16:34N 54°26' E 012°07'1110.9
2016-Jul-22 15:34N 54°36' E 012°16'1211.6
2016-Jul-22 14:34N 54°43' E 012°32'1511.5
2016-Jul-22 13:17N 54°49' E 012°55'811.7
2016-Jul-22 12:33N 54°53' E 013°08'1211.6
2016-Jul-22 11:33N 54°57' E 013°27'1211.7
2016-Jul-22 10:34N 55°01' E 013°46'1111.4
2016-Jul-22 09:33N 55°05' E 014°05'1211.8
2016-Jul-22 08:34N 55°14' E 014°18'1211.9
2016-Jul-22 07:34N 55°23' E 014°31'2311.4
2016-Jul-22 05:33N 55°34' E 015°06'1211.6
2016-Jul-22 04:33N 55°38' E 015°25'1211.8
2016-Jul-22 03:33N 55°42' E 015°45'1211.7
2016-Jul-22 02:34N 55°45' E 016°05'1211.6
2016-Jul-22 01:33N 55°48' E 016°26'1111.5
2016-Jul-22 00:34N 55°50' E 016°45'1411.5
2016-Jul-21 23:20N 55°53' E 017°10'911.5
2016-Jul-21 22:34N 55°56' E 017°25'1211.6
2016-Jul-21 21:33N 55°59' E 017°45'1311.7
2016-Jul-21 20:29N 56°06' E 018°04'1111.7
2016-Jul-21 19:33N 56°12' E 018°20'20111.8
2016-Jul-21 02:31N 59°05' E 021°33'1111.7
2016-Jul-21 01:33N 59°13' E 021°47'1211.8
2016-Jul-21 00:34N 59°20' E 022°06'1211.9
2016-Jul-20 23:34N 59°27' E 022°24'1211.6
2016-Jul-20 22:33N 59°32' E 022°45'1211.8
2016-Jul-20 21:33N 59°36' E 023°07'1211.6
2016-Jul-20 20:33N 59°39' E 023°30'1211.6
2016-Jul-20 19:34N 59°42' E 023°52'1211.7
2016-Jul-20 18:32N 59°45' E 024°15'1711.8
2016-Jul-20 17:05N 59°50' E 024°47'4111.5
2016-Jul-20 13:32N 59°58' E 026°07'1311.6
2016-Jul-20 12:23N 60°01' E 026°33'911.2
2016-Jul-20 11:34N 60°00' E 026°51'1110.9
2016-Jul-20 10:33N 60°02' E 027°13'1211.7
2016-Jul-20 09:33N 60°08' E 027°33'1110.6
2016-Jul-20 08:33N 60°11' E 027°54'1111.4
2016-Jul-20 07:33N 60°08' E 028°16'1010.6
2016-Jul-20 06:34N 60°03' E 028°35'8 8.4
2016-Jul-20 05:34N 59°55' E 028°32'10 9.8
2016-Jul-20 04:34N 59°46' E 028°25'5 4.7
2016-Jul-20 03:34N 59°41' E 028°25'0 0.1
2016-Jul-20 02:20N 59°41' E 028°25'0 0.1
2016-Jul-20 01:23N 59°41' E 028°25'0 0.1
2016-Jul-20 00:23N 59°41' E 028°25'0 0.0
2016-Jul-19 23:26N 59°41' E 028°25'0 0.0
2016-Jul-19 22:26N 59°41' E 028°25'0 0.0
2016-Jul-19 21:26N 59°41' E 028°25'0 0.0
2016-Jul-19 20:26N 59°41' E 028°25'0 0.0
2016-Jul-19 19:26N 59°41' E 028°25'0 0.0
2016-Jul-19 18:29N 59°41' E 028°25'0 0.0
2016-Jul-19 17:32N 59°41' E 028°25'0 0.0
2016-Jul-19 16:32N 59°41' E 028°25'0 0.0
2016-Jul-19 15:32N 59°41' E 028°25'0 0.0
2016-Jul-19 14:32N 59°41' E 028°25'0 0.2
2016-Jul-19 13:33N 59°41' E 028°25'0 0.0
2016-Jul-19 12:24N 59°41' E 028°25'0 0.0
2016-Jul-19 11:24N 59°41' E 028°25'0 0.0
2016-Jul-19 10:27N 59°41' E 028°25'0 0.0
2016-Jul-19 09:27N 59°41' E 028°25'0 0.0
2016-Jul-19 08:30N 59°41' E 028°25'0 0.0
2016-Jul-19 07:30N 59°41' E 028°25'0 0.0
2016-Jul-19 04:33N 59°41' E 028°25'0 0.0
2016-Jul-19 03:33N 59°41' E 028°25'0 0.0
2016-Jul-19 02:33N 59°41' E 028°25'0 0.0
2016-Jul-19 01:33N 59°41' E 028°25'0 0.1
2016-Jul-19 00:33N 59°41' E 028°25'0 0.0
2016-Jul-18 23:33N 59°41' E 028°25'0 0.0
2016-Jul-18 22:33N 59°41' E 028°25'0 0.0
2016-Jul-18 21:24N 59°41' E 028°25'0 0.0
2016-Jul-18 20:24N 59°41' E 028°25'0 0.0
2016-Jul-18 19:27N 59°41' E 028°25'0 0.0
2016-Jul-18 18:27N 59°41' E 028°25'0 0.0
2016-Jul-18 17:30N 59°41' E 028°25'0 0.0
2016-Jul-18 16:27N 59°41' E 028°25'0 0.1
2016-Jul-18 15:27N 59°41' E 028°25'0 0.1
2016-Jul-18 14:33N 59°41' E 028°25'0 0.0
2016-Jul-18 13:33N 59°41' E 028°25'0 0.0
2016-Jul-18 12:33N 59°41' E 028°25'0 0.0
2016-Jul-18 11:33N 59°41' E 028°25'0 0.1
2016-Jul-18 10:33N 59°41' E 028°25'0 0.0
2016-Jul-18 09:21N 59°41' E 028°25'0 0.1
2016-Jul-18 08:33N 59°41' E 028°25'0 0.0
2016-Jul-18 07:33N 59°41' E 028°25'0 0.0
2016-Jul-18 06:24N 59°41' E 028°25'0 0.1
2016-Jul-18 05:27N 59°41' E 028°25'0 0.1
2016-Jul-18 04:27N 59°41' E 028°25'0 0.1
2016-Jul-18 03:27N 59°41' E 028°25'0 0.1
2016-Jul-18 02:24N 59°41' E 028°25'0 0.0
2016-Jul-18 01:30N 59°41' E 028°25'0 0.1
2016-Jul-18 00:30N 59°41' E 028°25'0 0.0
2016-Jul-17 23:33N 59°41' E 028°25'0 0.1
2016-Jul-17 22:33N 59°41' E 028°25'0 0.1
2016-Jul-17 21:33N 59°41' E 028°25'0 0.0
2016-Jul-17 20:33N 59°41' E 028°25'0 0.0
2016-Jul-17 19:33N 59°41' E 028°25'0 0.1
2016-Jul-17 18:33N 59°41' E 028°25'2 1.9
2016-Jul-17 17:33N 59°43' E 028°23'9 8.7
2016-Jul-17 16:33N 59°51' E 028°27'6 4.9
2016-Jul-17 15:23N 59°54' E 028°37'0 0.1
2016-Jul-17 14:20N 59°54' E 028°37'0 0.0
2016-Jul-17 13:26N 59°54' E 028°37'0 0.0
2016-Jul-17 12:26N 59°54' E 028°37'0 0.0
2016-Jul-17 11:29N 59°54' E 028°37'0 0.0
2016-Jul-17 10:29N 59°54' E 028°37'0 0.1
2016-Jul-17 09:29N 59°54' E 028°37'0 0.0
2016-Jul-17 08:29N 59°54' E 028°37'0 0.0
2016-Jul-17 07:29N 59°54' E 028°37'0 0.0
2016-Jul-17 06:32N 59°54' E 028°37'0 0.0
2016-Jul-17 04:32N 59°54' E 028°37'0 0.0
2016-Jul-17 03:32N 59°54' E 028°37'0 0.0
2016-Jul-17 02:23N 59°54' E 028°37'0 0.0
2016-Jul-17 01:23N 59°54' E 028°37'0 0.0
2016-Jul-17 00:23N 59°54' E 028°37'0 0.0
2016-Jul-16 23:26N 59°54' E 028°37'0 0.0
2016-Jul-16 22:26N 59°54' E 028°37'0 0.1
2016-Jul-16 21:26N 59°54' E 028°37'0 0.0
2016-Jul-16 20:29N 59°54' E 028°37'0 0.0
2016-Jul-16 19:29N 59°54' E 028°37'0 0.0
2016-Jul-16 18:32N 59°54' E 028°37'0 0.0
2016-Jul-16 17:29N 59°54' E 028°37'0 0.0
2016-Jul-16 16:32N 59°54' E 028°37'0 0.0
2016-Jul-16 15:32N 59°54' E 028°37'0 0.0
2016-Jul-16 14:32N 59°54' E 028°37'0 0.0
2016-Jul-16 13:29N 59°54' E 028°37'0 0.0
2016-Jul-16 12:32N 59°54' E 028°37'0 0.0
2016-Jul-16 11:32N 59°54' E 028°37'0 0.0
2016-Jul-16 10:23N 59°54' E 028°37'0 0.0
2016-Jul-16 09:26N 59°54' E 028°37'0 0.0
2016-Jul-16 08:26N 59°54' E 028°37'0 0.0
2016-Jul-16 07:26N 59°54' E 028°37'0 0.1
2016-Jul-16 06:26N 59°54' E 028°37'0 0.0
2016-Jul-16 04:29N 59°54' E 028°37'0 0.0
2016-Jul-16 03:29N 59°54' E 028°37'0 0.0
2016-Jul-16 02:32N 59°54' E 028°37'0 0.0
2016-Jul-16 01:29N 59°54' E 028°37'0 0.0
2016-Jul-16 00:32N 59°54' E 028°37'0 0.0
2016-Jul-15 23:32N 59°54' E 028°37'0 0.0
2016-Jul-15 22:32N 59°54' E 028°37'0 0.0
2016-Jul-15 21:32N 59°54' E 028°37'0 0.0
2016-Jul-15 20:32N 59°54' E 028°37'0 0.0
2016-Jul-15 19:23N 59°54' E 028°37'0 0.0
2016-Jul-15 18:23N 59°54' E 028°37'0 0.2
2016-Jul-15 17:23N 59°54' E 028°37'0 0.2
2016-Jul-15 16:26N 59°54' E 028°36'0 0.0
2016-Jul-15 15:26N 59°54' E 028°36'0 0.0
2016-Jul-15 14:26N 59°54' E 028°36'0 0.0
2016-Jul-15 13:29N 59°54' E 028°36'0 0.0
2016-Jul-15 12:32N 59°54' E 028°36'0 0.0
2016-Jul-15 11:32N 59°54' E 028°36'0 0.0
2016-Jul-15 10:32N 59°54' E 028°36'0 0.0
2016-Jul-15 09:32N 59°54' E 028°36'0 0.0
2016-Jul-15 08:32N 59°54' E 028°36'0 0.0
2016-Jul-15 07:32N 59°54' E 028°36'0 0.0
2016-Jul-15 06:32N 59°54' E 028°36'0 0.0
2016-Jul-15 05:32N 59°54' E 028°36'0 0.0
2016-Jul-15 04:23N 59°54' E 028°36'0 0.0
2016-Jul-15 03:23N 59°54' E 028°36'0 0.0
2016-Jul-15 02:26N 59°54' E 028°36'  
Track history (hours):
 
Tides and Currents Weather Stations Pressure Air Temp Water Temp Dewpoint Dewpoint Depression Visibility Wind Speed Wind Dir Waves Ship Positions

Rize

Last reported at 2016-Jul-25 01:33 UTC. Time now 2016-Jul-25 02:21 UTC.
Position N 53°54' E 004°51'.

Length 229 m; draft 14 m.

Type: Cargo ship. MMSI: 215677000.

Date/timePositionNaut miles runAvg speedWind from/ knotsBaromVisibWave heightAir tempDewpointWater temp
2016-Jul-25 01:33N 53°54' E 004°51'1111.1
2016-Jul-25 00:33N 54°04' E 004°58'1111.0
2016-Jul-24 23:33N 54°15' E 005°04'16511.5
2016-Jul-24 09:18N 56°39' E 007°24'2211.7
2016-Jul-24 07:24N 56°58' E 007°45'1111.8
2016-Jul-24 06:30N 57°07' E 007°55'3511.4
2016-Jul-24 03:26N 57°29' E 008°45'2311.0
2016-Jul-24 01:20N 57°43' E 009°20'3311.3
2016-Jul-23 22:25N 57°52' E 010°19'1012.0
2016-Jul-23 21:33N 57°52' E 010°38'1010.3
2016-Jul-23 20:33N 57°44' E 010°52'6 2.3
2016-Jul-23 18:07N 57°41' E 010°43'0 0.0
2016-Jul-23 17:28N 57°41' E 010°43'0 0.0
2016-Jul-23 16:31N 57°41' E 010°43'6 5.9
2016-Jul-23 15:33N 57°38' E 010°51'1211.7
2016-Jul-23 14:33N 57°33' E 011°11'1111.0
2016-Jul-23 13:33N 57°26' E 011°27'1111.6
2016-Jul-23 12:34N 57°15' E 011°35'1211.5
2016-Jul-23 11:33N 57°04' E 011°42'1111.2
2016-Jul-23 10:34N 56°54' E 011°48'1010.4
2016-Jul-23 09:33N 56°44' E 011°52'1111.4
2016-Jul-23 08:34N 56°35' E 011°40'1211.5
2016-Jul-23 07:33N 56°26' E 011°25'1110.6
2016-Jul-23 06:31N 56°22' E 011°07'2211.1
2016-Jul-23 04:33N 56°00' E 011°04'1211.7
2016-Jul-23 03:33N 55°52' E 010°49'1211.9
2016-Jul-23 02:33N 55°40' E 010°47'1711.4
2016-Jul-23 01:05N 55°25' E 010°59'711.4
2016-Jul-23 00:30N 55°19' E 011°03'9 9.3
2016-Jul-22 23:33N 55°10' E 011°01'1111.5
2016-Jul-22 22:34N 54°59' E 010°58'1211.9
2016-Jul-22 21:34N 54°48' E 010°50'9 8.5
2016-Jul-22 20:34N 54°39' E 010°51'1111.4
2016-Jul-22 19:33N 54°36' E 011°10'1212.1
2016-Jul-22 18:34N 54°31' E 011°29'1211.8
2016-Jul-22 17:33N 54°26' E 011°47'1111.3
2016-Jul-22 16:34N 54°26' E 012°07'1110.9
2016-Jul-22 15:34N 54°36' E 012°16'1211.6
2016-Jul-22 14:34N 54°43' E 012°32'1511.5
2016-Jul-22 13:17N 54°49' E 012°55'811.7
2016-Jul-22 12:33N 54°53' E 013°08'1211.6
2016-Jul-22 11:33N 54°57' E 013°27'1211.7
2016-Jul-22 10:34N 55°01' E 013°46'1111.4
2016-Jul-22 09:33N 55°05' E 014°05'1211.8
2016-Jul-22 08:34N 55°14' E 014°18'1211.9
2016-Jul-22 07:34N 55°23' E 014°31'2311.4
2016-Jul-22 05:33N 55°34' E 015°06'1211.6
2016-Jul-22 04:33N 55°38' E 015°25'1211.8
2016-Jul-22 03:33N 55°42' E 015°45'1211.7
2016-Jul-22 02:34N 55°45' E 016°05'1211.6
2016-Jul-22 01:33N 55°48' E 016°26'1111.5
2016-Jul-22 00:34N 55°50' E 016°45'1411.5
2016-Jul-21 23:20N 55°53' E 017°10'911.5
2016-Jul-21 22:34N 55°56' E 017°25'1211.6
2016-Jul-21 21:33N 55°59' E 017°45'1311.7
2016-Jul-21 20:29N 56°06' E 018°04'1111.7
2016-Jul-21 19:33N 56°12' E 018°20'20111.8
2016-Jul-21 02:31N 59°05' E 021°33'1111.7
2016-Jul-21 01:33N 59°13' E 021°47'1211.8
2016-Jul-21 00:34N 59°20' E 022°06'1211.9
2016-Jul-20 23:34N 59°27' E 022°24'1211.6
2016-Jul-20 22:33N 59°32' E 022°45'1211.8
2016-Jul-20 21:33N 59°36' E 023°07'1211.6
2016-Jul-20 20:33N 59°39' E 023°30'1211.6
2016-Jul-20 19:34N 59°42' E 023°52'1211.7
2016-Jul-20 18:32N 59°45' E 024°15'1711.8
2016-Jul-20 17:05N 59°50' E 024°47'4111.5
2016-Jul-20 13:32N 59°58' E 026°07'1311.6
2016-Jul-20 12:23N 60°01' E 026°33'911.2
2016-Jul-20 11:34N 60°00' E 026°51'1110.9
2016-Jul-20 10:33N 60°02' E 027°13'1211.7
2016-Jul-20 09:33N 60°08' E 027°33'1110.6
2016-Jul-20 08:33N 60°11' E 027°54'1111.4
2016-Jul-20 07:33N 60°08' E 028°16'1010.6
2016-Jul-20 06:34N 60°03' E 028°35'8 8.4
2016-Jul-20 05:34N 59°55' E 028°32'10 9.8
2016-Jul-20 04:34N 59°46' E 028°25'5 4.7
2016-Jul-20 03:34N 59°41' E 028°25'0 0.1
2016-Jul-20 02:20N 59°41' E 028°25'0 0.1
2016-Jul-20 01:23N 59°41' E 028°25'0 0.1
2016-Jul-20 00:23N 59°41' E 028°25'0 0.0
2016-Jul-19 23:26N 59°41' E 028°25'0 0.0
2016-Jul-19 22:26N 59°41' E 028°25'0 0.0
2016-Jul-19 21:26N 59°41' E 028°25'0 0.0
2016-Jul-19 20:26N 59°41' E 028°25'0 0.0
2016-Jul-19 19:26N 59°41' E 028°25'0 0.0
2016-Jul-19 18:29N 59°41' E 028°25'0 0.0
2016-Jul-19 17:32N 59°41' E 028°25'0 0.0
2016-Jul-19 16:32N 59°41' E 028°25'0 0.0
2016-Jul-19 15:32N 59°41' E 028°25'0 0.0
2016-Jul-19 14:32N 59°41' E 028°25'0 0.2
2016-Jul-19 13:33N 59°41' E 028°25'0 0.0
2016-Jul-19 12:24N 59°41' E 028°25'0 0.0
2016-Jul-19 11:24N 59°41' E 028°25'0 0.0
2016-Jul-19 10:27N 59°41' E 028°25'0 0.0
2016-Jul-19 09:27N 59°41' E 028°25'0 0.0
2016-Jul-19 08:30N 59°41' E 028°25'0 0.0
2016-Jul-19 07:30N 59°41' E 028°25'0 0.0
2016-Jul-19 04:33N 59°41' E 028°25'0 0.0
2016-Jul-19 03:33N 59°41' E 028°25'0 0.0
2016-Jul-19 02:33N 59°41' E 028°25'0 0.0
2016-Jul-19 01:33N 59°41' E 028°25'0 0.1
2016-Jul-19 00:33N 59°41' E 028°25'0 0.0
2016-Jul-18 23:33N 59°41' E 028°25'0 0.0
2016-Jul-18 22:33N 59°41' E 028°25'0 0.0
2016-Jul-18 21:24N 59°41' E 028°25'0 0.0
2016-Jul-18 20:24N 59°41' E 028°25'0 0.0
2016-Jul-18 19:27N 59°41' E 028°25'0 0.0
2016-Jul-18 18:27N 59°41' E 028°25'0 0.0
2016-Jul-18 17:30N 59°41' E 028°25'0 0.0
2016-Jul-18 16:27N 59°41' E 028°25'0 0.1
2016-Jul-18 15:27N 59°41' E 028°25'0 0.1
2016-Jul-18 14:33N 59°41' E 028°25'0 0.0
2016-Jul-18 13:33N 59°41' E 028°25'0 0.0
2016-Jul-18 12:33N 59°41' E 028°25'0 0.0
2016-Jul-18 11:33N 59°41' E 028°25'0 0.1
2016-Jul-18 10:33N 59°41' E 028°25'0 0.0
2016-Jul-18 09:21N 59°41' E 028°25'0 0.1
2016-Jul-18 08:33N 59°41' E 028°25'0 0.0
2016-Jul-18 07:33N 59°41' E 028°25'0 0.0
2016-Jul-18 06:24N 59°41' E 028°25'0 0.1
2016-Jul-18 05:27N 59°41' E 028°25'0 0.1
2016-Jul-18 04:27N 59°41' E 028°25'0 0.1
2016-Jul-18 03:27N 59°41' E 028°25'0 0.1
2016-Jul-18 02:24N 59°41' E 028°25'0 0.0
2016-Jul-18 01:30N 59°41' E 028°25'0 0.1
2016-Jul-18 00:30N 59°41' E 028°25'0 0.0
2016-Jul-17 23:33N 59°41' E 028°25'0 0.1
2016-Jul-17 22:33N 59°41' E 028°25'0 0.1
2016-Jul-17 21:33N 59°41' E 028°25'0 0.0
2016-Jul-17 20:33N 59°41' E 028°25'0 0.0
2016-Jul-17 19:33N 59°41' E 028°25'0 0.1
2016-Jul-17 18:33N 59°41' E 028°25'2 1.9
2016-Jul-17 17:33N 59°43' E 028°23'9 8.7
2016-Jul-17 16:33N 59°51' E 028°27'6 4.9
2016-Jul-17 15:23N 59°54' E 028°37'0 0.1
2016-Jul-17 14:20N 59°54' E 028°37'0 0.0
2016-Jul-17 13:26N 59°54' E 028°37'0 0.0
2016-Jul-17 12:26N 59°54' E 028°37'0 0.0
2016-Jul-17 11:29N 59°54' E 028°37'0 0.0
2016-Jul-17 10:29N 59°54' E 028°37'0 0.1
2016-Jul-17 09:29N 59°54' E 028°37'0 0.0
2016-Jul-17 08:29N 59°54' E 028°37'0 0.0
2016-Jul-17 07:29N 59°54' E 028°37'0 0.0
2016-Jul-17 06:32N 59°54' E 028°37'0 0.0
2016-Jul-17 04:32N 59°54' E 028°37'0 0.0
2016-Jul-17 03:32N 59°54' E 028°37'0 0.0
2016-Jul-17 02:23N 59°54' E 028°37'0 0.0
2016-Jul-17 01:23N 59°54' E 028°37'0 0.0
2016-Jul-17 00:23N 59°54' E 028°37'0 0.0
2016-Jul-16 23:26N 59°54' E 028°37'0 0.0
2016-Jul-16 22:26N 59°54' E 028°37'0 0.1
2016-Jul-16 21:26N 59°54' E 028°37'0 0.0
2016-Jul-16 20:29N 59°54' E 028°37'0 0.0
2016-Jul-16 19:29N 59°54' E 028°37'0 0.0
2016-Jul-16 18:32N 59°54' E 028°37'0 0.0
2016-Jul-16 17:29N 59°54' E 028°37'0 0.0
2016-Jul-16 16:32N 59°54' E 028°37'0 0.0
2016-Jul-16 15:32N 59°54' E 028°37'0 0.0
2016-Jul-16 14:32N 59°54' E 028°37'0 0.0
2016-Jul-16 13:29N 59°54' E 028°37'0 0.0
2016-Jul-16 12:32N 59°54' E 028°37'0 0.0
2016-Jul-16 11:32N 59°54' E 028°37'0 0.0
2016-Jul-16 10:23N 59°54' E 028°37'0 0.0
2016-Jul-16 09:26N 59°54' E 028°37'0 0.0
2016-Jul-16 08:26N 59°54' E 028°37'0 0.0
2016-Jul-16 07:26N 59°54' E 028°37'0 0.1
2016-Jul-16 06:26N 59°54' E 028°37'0 0.0
2016-Jul-16 04:29N 59°54' E 028°37'0 0.0
2016-Jul-16 03:29N 59°54' E 028°37'0 0.0
2016-Jul-16 02:32N 59°54' E 028°37'0 0.0
2016-Jul-16 01:29N 59°54' E 028°37'0 0.0
2016-Jul-16 00:32N 59°54' E 028°37'0 0.0
2016-Jul-15 23:32N 59°54' E 028°37'0 0.0
2016-Jul-15 22:32N 59°54' E 028°37'0 0.0
2016-Jul-15 21:32N 59°54' E 028°37'0 0.0
2016-Jul-15 20:32N 59°54' E 028°37'0 0.0
2016-Jul-15 19:23N 59°54' E 028°37'0 0.0
2016-Jul-15 18:23N 59°54' E 028°37'0 0.2
2016-Jul-15 17:23N 59°54' E 028°37'0 0.2
2016-Jul-15 16:26N 59°54' E 028°36'0 0.0
2016-Jul-15 15:26N 59°54' E 028°36'0 0.0
2016-Jul-15 14:26N 59°54' E 028°36'0 0.0
2016-Jul-15 13:29N 59°54' E 028°36'0 0.0
2016-Jul-15 12:32N 59°54' E 028°36'0 0.0
2016-Jul-15 11:32N 59°54' E 028°36'0 0.0
2016-Jul-15 10:32N 59°54' E 028°36'0 0.0
2016-Jul-15 09:32N 59°54' E 028°36'0 0.0
2016-Jul-15 08:32N 59°54' E 028°36'0 0.0
2016-Jul-15 07:32N 59°54' E 028°36'0 0.0
2016-Jul-15 06:32N 59°54' E 028°36'0 0.0
2016-Jul-15 05:32N 59°54' E 028°36'0 0.0
2016-Jul-15 04:23N 59°54' E 028°36'0 0.0
2016-Jul-15 03:23N 59°54' E 028°36'0 0.0
2016-Jul-15 02:26N 59°54' E 028°36'  

Dump ship's entire track history